createdAt,value
2016-01-31T00:00:28.656Z,0
2016-01-31T00:01:29.098Z,0
2016-01-31T00:02:25.615Z,0
2016-01-31T00:03:27.759Z,0
2016-01-31T00:04:25.387Z,0
2016-01-31T00:05:25.499Z,0
2016-01-31T00:06:25.393Z,0
2016-01-31T00:07:25.411Z,0
2016-01-31T00:08:25.367Z,0
2016-01-31T00:09:25.417Z,0
2016-01-31T00:10:25.405Z,0
2016-01-31T00:11:25.378Z,0
2016-01-31T00:12:25.364Z,0
2016-01-31T00:13:25.382Z,0
2016-01-31T00:14:25.358Z,0
2016-01-31T00:15:25.378Z,0
2016-01-31T00:16:25.350Z,0
2016-01-31T00:17:25.368Z,0
2016-01-31T00:18:25.387Z,0
2016-01-31T00:19:25.390Z,0
2016-01-31T00:20:25.364Z,0
2016-01-31T00:21:25.335Z,0
2016-01-31T00:22:25.322Z,0
2016-01-31T00:23:25.372Z,0
2016-01-31T00:24:25.375Z,0
2016-01-31T00:25:25.346Z,0
2016-01-31T00:26:25.318Z,0
2016-01-31T00:27:25.337Z,0
2016-01-31T00:28:25.323Z,0
2016-01-31T00:29:25.340Z,0
2016-01-31T00:30:25.312Z,0
2016-01-31T00:31:25.315Z,0
2016-01-31T00:32:25.334Z,0
2016-01-31T00:33:25.321Z,0
2016-01-31T00:34:25.355Z,0
2016-01-31T00:35:25.343Z,0
2016-01-31T00:36:25.315Z,0
2016-01-31T00:37:25.270Z,0
2016-01-31T00:38:25.257Z,0
2016-01-31T00:39:25.276Z,0
2016-01-31T00:40:25.297Z,0
2016-01-31T00:41:25.285Z,0
2016-01-31T00:42:25.257Z,0
2016-01-31T00:43:25.290Z,0
2016-01-31T00:44:25.248Z,0
2016-01-31T00:45:25.259Z,0
2016-01-31T00:46:25.246Z,0
2016-01-31T00:47:25.265Z,0
2016-01-31T00:48:25.240Z,0
2016-01-31T00:49:25.228Z,0
2016-01-31T00:50:25.249Z,0
2016-01-31T00:51:25.205Z,0
2016-01-31T00:52:25.224Z,0
2016-01-31T00:53:25.210Z,0
2016-01-31T00:54:25.245Z,0
2016-01-31T00:55:25.233Z,0
2016-01-31T00:56:25.267Z,0
2016-01-31T00:57:25.205Z,0
2016-01-31T00:58:25.207Z,0
2016-01-31T00:59:25.168Z,0
2016-01-31T01:00:25.185Z,0
2016-01-31T01:01:25.235Z,0
2016-01-31T01:02:25.161Z,0
2016-01-31T01:03:25.246Z,0
2016-01-31T01:04:25.300Z,0
2016-01-31T01:05:25.178Z,0
2016-01-31T01:06:25.151Z,0
2016-01-31T01:07:25.184Z,0
2016-01-31T01:08:25.125Z,0
2016-01-31T01:09:25.117Z,0
2016-01-31T01:10:25.154Z,0
2016-01-31T01:11:25.156Z,0
2016-01-31T01:12:25.128Z,0
2016-01-31T01:13:25.130Z,0
2016-01-31T01:14:25.117Z,0
2016-01-31T01:15:25.104Z,0
2016-01-31T01:16:25.107Z,0
2016-01-31T01:17:25.125Z,0
2016-01-31T01:18:25.081Z,0
2016-01-31T01:19:25.101Z,0
2016-01-31T01:20:25.104Z,0
2016-01-31T01:21:25.074Z,0
2016-01-31T01:22:25.061Z,0
2016-01-31T01:23:25.065Z,0
2016-01-31T01:24:25.036Z,0
2016-01-31T01:25:25.039Z,0
2016-01-31T01:26:25.058Z,0
2016-01-31T01:27:25.032Z,0
2016-01-31T01:28:25.050Z,0
2016-01-31T01:29:25.020Z,0
2016-01-31T01:30:25.040Z,0
2016-01-31T01:31:25.151Z,0
2016-01-31T01:32:25.046Z,0
2016-01-31T01:33:25.032Z,0
2016-01-31T01:34:25.006Z,0
2016-01-31T01:35:24.993Z,0
2016-01-31T01:36:24.980Z,0
2016-01-31T01:37:24.983Z,0
2016-01-31T01:38:24.987Z,0
2016-01-31T01:39:24.990Z,0
2016-01-31T01:40:24.992Z,0
2016-01-31T01:41:25.026Z,0
2016-01-31T01:42:25.013Z,0
2016-01-31T01:43:24.954Z,0
2016-01-31T01:44:24.941Z,0
2016-01-31T01:45:24.974Z,0
2016-01-31T01:46:24.967Z,0
2016-01-31T01:47:24.938Z,0
2016-01-31T01:48:24.941Z,0
2016-01-31T01:49:24.772Z,0
2016-01-31T01:50:24.931Z,0
2016-01-31T01:51:24.918Z,0
2016-01-31T01:52:24.921Z,0
2016-01-31T01:53:24.893Z,0
2016-01-31T01:54:24.895Z,0
2016-01-31T01:55:24.913Z,0
2016-01-31T01:56:24.948Z,0
2016-01-31T01:57:24.903Z,0
2016-01-31T01:58:24.878Z,0
2016-01-31T01:59:24.895Z,0
2016-01-31T02:00:24.883Z,0
2016-01-31T02:01:24.886Z,0
2016-01-31T02:02:24.905Z,0
2016-01-31T02:03:24.846Z,0
2016-01-31T02:04:24.692Z,0
2016-01-31T02:05:24.836Z,0
2016-01-31T02:06:24.854Z,0
2016-01-31T02:07:24.858Z,0
2016-01-31T02:08:24.861Z,0
2016-01-31T02:09:24.817Z,0
2016-01-31T02:10:24.819Z,0
2016-01-31T02:11:24.822Z,0
2016-01-31T02:12:24.809Z,0
2016-01-31T02:13:24.812Z,0
2016-01-31T02:14:24.798Z,0
2016-01-31T02:15:24.786Z,0
2016-01-31T02:16:24.788Z,0
2016-01-31T02:17:24.783Z,0
2016-01-31T02:18:24.786Z,0
2016-01-31T02:19:24.772Z,0
2016-01-31T02:20:24.791Z,0
2016-01-31T02:21:24.778Z,0
2016-01-31T02:22:24.766Z,0
2016-01-31T02:23:24.769Z,0
2016-01-31T02:24:24.753Z,0
2016-01-31T02:25:24.740Z,0
2016-01-31T02:26:24.731Z,0
2016-01-31T02:27:24.750Z,0
2016-01-31T02:28:24.738Z,0
2016-01-31T02:29:24.740Z,0
2016-01-31T02:30:24.713Z,0
2016-01-31T02:31:24.715Z,0
2016-01-31T02:32:24.718Z,0
2016-01-31T02:33:24.720Z,0
2016-01-31T02:34:24.692Z,0
2016-01-31T02:35:24.710Z,0
2016-01-31T02:36:24.682Z,0
2016-01-31T02:37:24.684Z,0
2016-01-31T02:38:24.656Z,0
2016-01-31T02:39:24.674Z,0
2016-01-31T02:40:24.660Z,0
2016-01-31T02:41:24.648Z,0
2016-01-31T02:42:24.651Z,0
2016-01-31T02:43:24.654Z,0
2016-01-31T02:44:24.672Z,0
2016-01-31T02:45:24.644Z,0
2016-01-31T02:46:24.648Z,0
2016-01-31T02:47:24.635Z,0
2016-01-31T02:48:24.637Z,0
2016-01-31T02:49:24.675Z,0
2016-01-31T02:50:24.615Z,0
2016-01-31T02:51:24.634Z,0
2016-01-31T02:52:24.620Z,0
2016-01-31T02:53:24.608Z,0
2016-01-31T02:54:24.596Z,0
2016-01-31T02:55:24.646Z,0
2016-01-31T02:56:24.633Z,0
2016-01-31T02:57:24.573Z,0
2016-01-31T02:58:24.576Z,0
2016-01-31T02:59:24.548Z,0
2016-01-31T03:00:24.583Z,0
2016-01-31T03:01:24.588Z,0
2016-01-31T03:02:24.544Z,0
2016-01-31T03:03:24.547Z,0
2016-01-31T03:04:24.564Z,0
2016-01-31T03:05:24.537Z,0
2016-01-31T03:06:24.524Z,0
2016-01-31T03:07:24.526Z,0
2016-01-31T03:08:24.545Z,0
2016-01-31T03:09:24.532Z,0
2016-01-31T03:10:24.506Z,0
2016-01-31T03:11:24.556Z,0
2016-01-31T03:12:24.512Z,0
2016-01-31T03:13:24.515Z,0
2016-01-31T03:14:24.492Z,0
2016-01-31T03:15:24.463Z,0
2016-01-31T03:16:24.466Z,0
2016-01-31T03:17:24.469Z,0
2016-01-31T03:18:24.503Z,0
2016-01-31T03:19:24.474Z,0
2016-01-31T03:20:24.451Z,0
2016-01-31T03:21:24.440Z,0
2016-01-31T03:22:24.442Z,0
2016-01-31T03:23:24.430Z,0
2016-01-31T03:24:24.463Z,0
2016-01-31T03:25:24.420Z,0
2016-01-31T03:26:24.404Z,0
2016-01-31T03:27:24.422Z,0
2016-01-31T03:28:24.425Z,0
2016-01-31T03:29:24.398Z,0
2016-01-31T03:30:24.384Z,0
2016-01-31T03:31:24.388Z,0
2016-01-31T03:32:24.421Z,0
2016-01-31T03:33:24.362Z,0
2016-01-31T03:34:24.366Z,0
2016-01-31T03:35:24.369Z,0
2016-01-31T03:36:24.340Z,0
2016-01-31T03:37:24.326Z,0
2016-01-31T03:38:24.347Z,0
2016-01-31T03:39:24.381Z,0
2016-01-31T03:40:24.322Z,0
2016-01-31T03:41:24.309Z,0
2016-01-31T03:42:24.328Z,0
2016-01-31T03:43:24.330Z,0
2016-01-31T03:44:24.302Z,0
2016-01-31T03:45:24.291Z,0
2016-01-31T03:46:24.279Z,0
2016-01-31T03:47:24.297Z,0
2016-01-31T03:48:24.285Z,0
2016-01-31T03:49:24.257Z,0
2016-01-31T03:50:24.281Z,0
2016-01-31T03:51:24.300Z,0
2016-01-31T03:52:24.304Z,0
2016-01-31T03:53:24.243Z,0
2016-01-31T03:54:24.246Z,0
2016-01-31T03:55:24.468Z,0
2016-01-31T03:56:24.282Z,0
2016-01-31T03:57:24.207Z,0
2016-01-31T03:58:24.241Z,0
2016-01-31T03:59:24.245Z,0
2016-01-31T04:00:24.216Z,0
2016-01-31T04:01:24.234Z,0
2016-01-31T04:02:24.222Z,0
2016-01-31T04:03:24.193Z,0
2016-01-31T04:04:24.197Z,0
2016-01-31T04:05:24.216Z,0
2016-01-31T04:06:24.172Z,0
2016-01-31T04:07:24.158Z,0
2016-01-31T04:08:24.191Z,0
2016-01-31T04:09:24.164Z,0
2016-01-31T04:10:23.995Z,0
2016-01-31T04:11:24.153Z,0
2016-01-31T04:12:24.173Z,0
2016-01-31T04:13:24.147Z,0
2016-01-31T04:14:24.117Z,0
2016-01-31T04:15:24.121Z,0
2016-01-31T04:16:23.952Z,0
2016-01-31T04:17:24.114Z,0
2016-01-31T04:18:24.148Z,0
2016-01-31T04:19:23.948Z,0
2016-01-31T04:20:24.144Z,0
2016-01-31T04:21:24.100Z,0
2016-01-31T04:22:24.135Z,0
2016-01-31T04:23:24.074Z,0
2016-01-31T04:24:23.908Z,0
2016-01-31T04:25:24.083Z,0
2016-01-31T04:26:24.102Z,0
2016-01-31T04:27:24.058Z,0
2016-01-31T04:28:24.030Z,0
2016-01-31T04:29:24.049Z,0
2016-01-31T04:30:24.035Z,0
2016-01-31T04:31:24.023Z,0
2016-01-31T04:32:24.026Z,0
2016-01-31T04:33:24.046Z,0
2016-01-31T04:34:24.003Z,0
2016-01-31T04:35:24.005Z,0
2016-01-31T04:36:24.008Z,0
2016-01-31T04:37:24.027Z,0
2016-01-31T04:38:23.982Z,0
2016-01-31T04:39:23.985Z,0
2016-01-31T04:40:23.987Z,0
2016-01-31T04:41:23.992Z,0
2016-01-31T04:42:23.947Z,0
2016-01-31T04:43:23.949Z,0
2016-01-31T04:44:23.957Z,0
2016-01-31T04:45:23.944Z,0
2016-01-31T04:46:23.947Z,0
2016-01-31T04:47:23.933Z,0
2016-01-31T04:48:23.937Z,0
2016-01-31T04:49:23.956Z,0
2016-01-31T04:50:23.959Z,0
2016-01-31T04:51:23.929Z,0
2016-01-31T04:52:23.902Z,0
2016-01-31T04:53:23.936Z,0
2016-01-31T04:54:23.907Z,0
2016-01-31T04:55:23.910Z,0
2016-01-31T04:56:23.960Z,0
2016-01-31T04:57:23.886Z,0
2016-01-31T04:58:23.873Z,0
2016-01-31T04:59:23.875Z,0
2016-01-31T05:00:23.847Z,0
2016-01-31T05:01:23.867Z,0
2016-01-31T05:02:23.869Z,0
2016-01-31T05:03:23.857Z,0
2016-01-31T05:04:23.829Z,0
2016-01-31T05:05:23.831Z,0
2016-01-31T05:06:23.849Z,0
2016-01-31T05:07:23.868Z,0
2016-01-31T05:08:23.840Z,0
2016-01-31T05:09:23.842Z,0
2016-01-31T05:10:23.798Z,0
2016-01-31T05:11:23.785Z,0
2016-01-31T05:12:23.788Z,0
2016-01-31T05:13:23.822Z,0
2016-01-31T05:14:23.778Z,0
2016-01-31T05:15:23.781Z,0
2016-01-31T05:16:23.768Z,0
2016-01-31T05:17:23.786Z,0
2016-01-31T05:18:23.757Z,0
2016-01-31T05:19:23.760Z,0
2016-01-31T05:20:23.748Z,0
2016-01-31T05:21:23.767Z,0
2016-01-31T05:22:23.739Z,0
2016-01-31T05:23:23.726Z,0
2016-01-31T05:24:23.745Z,0
2016-01-31T05:25:23.748Z,0
2016-01-31T05:26:23.703Z,0
2016-01-31T05:27:23.707Z,0
2016-01-31T05:28:23.710Z,0
2016-01-31T05:29:23.712Z,0
2016-01-31T05:30:23.699Z,0
2016-01-31T05:31:23.686Z,0
2016-01-31T05:32:23.692Z,0
2016-01-31T05:33:23.710Z,0
2016-01-31T05:34:23.666Z,0
2016-01-31T05:35:23.650Z,0
2016-01-31T05:36:23.654Z,0
2016-01-31T05:37:23.658Z,0
2016-01-31T05:38:23.629Z,0
2016-01-31T05:39:23.646Z,0
2016-01-31T05:40:23.651Z,0
2016-01-31T05:41:23.607Z,0
2016-01-31T05:42:23.609Z,0
2016-01-31T05:43:23.315Z,0
2016-01-31T05:44:23.632Z,0
2016-01-31T05:45:23.618Z,0
2016-01-31T05:46:23.590Z,0
2016-01-31T05:47:23.579Z,0
2016-01-31T05:48:23.582Z,0
2016-01-31T05:49:23.570Z,0
2016-01-31T05:50:23.603Z,0
2016-01-31T05:51:23.560Z,0
2016-01-31T05:52:23.579Z,0
2016-01-31T05:53:23.565Z,0
2016-01-31T05:54:23.615Z,0
2016-01-31T05:55:23.571Z,0
2016-01-31T05:56:23.591Z,0
2016-01-31T05:57:23.561Z,0
2016-01-31T05:58:23.533Z,0
2016-01-31T05:59:23.504Z,0
2016-01-31T06:00:23.527Z,0
2016-01-31T06:01:23.497Z,0
2016-01-31T06:02:23.516Z,0
2016-01-31T06:03:23.487Z,0
2016-01-31T06:04:23.476Z,0
2016-01-31T06:05:23.463Z,0
2016-01-31T06:06:23.513Z,0
2016-01-31T06:07:23.486Z,0
2016-01-31T06:08:23.473Z,0
2016-01-31T06:09:23.460Z,0
2016-01-31T06:10:23.463Z,0
2016-01-31T06:11:23.434Z,0
2016-01-31T06:12:23.469Z,0
2016-01-31T06:13:23.410Z,0
2016-01-31T06:14:23.397Z,0
2016-01-31T06:15:23.385Z,0
2016-01-31T06:16:23.341Z,0
2016-01-31T06:17:23.328Z,0
2016-01-31T06:18:23.326Z,0
2016-01-31T06:19:23.292Z,0
2016-01-31T06:20:23.322Z,0
2016-01-31T06:21:23.319Z,0
2016-01-31T06:22:23.302Z,0
2016-01-31T06:23:23.271Z,0
2016-01-31T06:24:23.258Z,0
2016-01-31T06:25:23.275Z,0
2016-01-31T06:26:23.277Z,0
2016-01-31T06:27:23.232Z,0
2016-01-31T06:28:23.420Z,0
2016-01-31T06:29:23.281Z,0
2016-01-31T06:30:23.222Z,0
2016-01-31T06:31:23.208Z,0
2016-01-31T06:32:23.211Z,0
2016-01-31T06:33:26.229Z,0
2016-01-31T06:34:23.184Z,0
2016-01-31T06:35:23.188Z,0
2016-01-31T06:36:23.207Z,0
2016-01-31T06:37:23.177Z,0
2016-01-31T06:38:23.165Z,0
2016-01-31T06:39:23.027Z,0
2016-01-31T06:40:23.186Z,0
2016-01-31T06:41:23.189Z,5
2016-01-31T06:42:23.191Z,5
2016-01-31T06:43:23.163Z,5
2016-01-31T06:44:23.123Z,5
2016-01-31T06:45:23.125Z,5
2016-01-31T06:46:23.128Z,5
2016-01-31T06:47:23.132Z,5
2016-01-31T06:48:23.150Z,10
2016-01-31T06:49:23.106Z,10
2016-01-31T06:50:23.093Z,10
2016-01-31T06:51:23.127Z,10
2016-01-31T06:52:23.082Z,10
2016-01-31T06:53:23.069Z,10
2016-01-31T06:54:23.072Z,15
2016-01-31T06:55:23.090Z,15
2016-01-31T06:56:23.124Z,15
2016-01-31T06:57:23.064Z,15
2016-01-31T06:58:23.052Z,20
2016-01-31T06:59:23.058Z,20
2016-01-31T07:00:23.045Z,20
2016-01-31T07:01:23.032Z,20
2016-01-31T07:02:23.034Z,20
2016-01-31T07:03:22.866Z,25
2016-01-31T07:04:23.041Z,25
2016-01-31T07:05:23.012Z,25
2016-01-31T07:06:23.015Z,30
2016-01-31T07:07:23.018Z,30
2016-01-31T07:08:23.037Z,30
2016-01-31T07:09:23.008Z,35
2016-01-31T07:10:23.231Z,35
2016-01-31T07:11:22.984Z,35
2016-01-31T07:12:23.002Z,40
2016-01-31T07:13:22.974Z,40
2016-01-31T07:14:22.977Z,40
2016-01-31T07:15:22.974Z,40
2016-01-31T07:16:22.961Z,40
2016-01-31T07:17:22.950Z,40
2016-01-31T07:18:22.967Z,40
2016-01-31T07:19:22.923Z,40
2016-01-31T07:20:22.958Z,45
2016-01-31T07:21:22.944Z,50
2016-01-31T07:22:22.947Z,50
2016-01-31T07:23:22.901Z,55
2016-01-31T07:24:22.935Z,60
2016-01-31T07:25:22.906Z,60
2016-01-31T07:26:22.925Z,60
2016-01-31T07:27:22.928Z,60
2016-01-31T07:28:22.743Z,60
2016-01-31T07:29:22.902Z,55
2016-01-31T07:30:22.861Z,55
2016-01-31T07:31:22.880Z,50
2016-01-31T07:32:22.882Z,50
2016-01-31T07:33:22.869Z,50
2016-01-31T07:34:22.872Z,50
2016-01-31T07:35:22.861Z,50
2016-01-31T07:36:22.864Z,55
2016-01-31T07:37:22.835Z,50
2016-01-31T07:38:22.853Z,50
2016-01-31T07:39:22.842Z,45
2016-01-31T07:40:22.844Z,45
2016-01-31T07:41:22.815Z,45
2016-01-31T07:42:22.819Z,45
2016-01-31T07:43:22.810Z,45
2016-01-31T07:44:22.828Z,50
2016-01-31T07:45:22.785Z,55
2016-01-31T07:46:22.802Z,55
2016-01-31T07:47:22.823Z,60
2016-01-31T07:48:22.841Z,65
2016-01-31T07:49:22.782Z,70
2016-01-31T07:50:22.785Z,75
2016-01-31T07:51:22.788Z,70
2016-01-31T07:52:22.806Z,75
2016-01-31T07:53:22.761Z,75
2016-01-31T07:54:22.764Z,80
2016-01-31T07:55:22.752Z,85
2016-01-31T07:56:22.801Z,85
2016-01-31T07:57:22.725Z,100
2016-01-31T07:58:22.714Z,110
2016-01-31T07:59:22.732Z,105
2016-01-31T08:00:22.734Z,105
2016-01-31T08:01:22.706Z,100
2016-01-31T08:02:22.709Z,100
2016-01-31T08:03:22.728Z,100
2016-01-31T08:04:25.700Z,110
2016-01-31T08:05:22.687Z,110
2016-01-31T08:06:22.705Z,100
2016-01-31T08:07:22.724Z,105
2016-01-31T08:08:22.680Z,105
2016-01-31T08:09:22.683Z,105
2016-01-31T08:10:22.685Z,105
2016-01-31T08:11:22.673Z,115
2016-01-31T08:12:22.691Z,110
2016-01-31T08:13:22.646Z,110
2016-01-31T08:14:22.665Z,110
2016-01-31T08:15:22.652Z,110
2016-01-31T08:16:22.654Z,110
2016-01-31T08:17:22.657Z,115
2016-01-31T08:18:22.644Z,120
2016-01-31T08:19:22.661Z,125
2016-01-31T08:20:22.633Z,125
2016-01-31T08:21:22.635Z,125
2016-01-31T08:22:22.638Z,120
2016-01-31T08:23:22.672Z,120
2016-01-31T08:24:22.613Z,120
2016-01-31T08:25:22.616Z,120
2016-01-31T08:26:22.619Z,120
2016-01-31T08:27:22.622Z,120
2016-01-31T08:28:22.578Z,120
2016-01-31T08:29:22.597Z,120
2016-01-31T08:30:22.599Z,115
2016-01-31T08:31:22.587Z,110
2016-01-31T08:32:22.606Z,105
2016-01-31T08:33:22.576Z,95
2016-01-31T08:34:22.565Z,100
2016-01-31T08:35:22.568Z,110
2016-01-31T08:36:22.586Z,115
2016-01-31T08:37:22.542Z,120
2016-01-31T08:38:22.561Z,125
2016-01-31T08:39:22.563Z,135
2016-01-31T08:40:22.582Z,140
2016-01-31T08:41:22.410Z,145
2016-01-31T08:42:22.559Z,150
2016-01-31T08:43:22.562Z,150
2016-01-31T08:44:22.531Z,150
2016-01-31T08:45:22.517Z,150
2016-01-31T08:46:22.536Z,150
2016-01-31T08:47:22.511Z,145
2016-01-31T08:48:22.536Z,140
2016-01-31T08:49:22.509Z,140
2016-01-31T08:50:22.512Z,140
2016-01-31T08:51:22.358Z,130
2016-01-31T08:52:22.517Z,115
2016-01-31T08:53:22.521Z,110
2016-01-31T08:54:22.493Z,110
2016-01-31T08:55:22.479Z,110
2016-01-31T08:56:22.513Z,120
2016-01-31T08:57:22.484Z,140
2016-01-31T08:58:22.471Z,160
2016-01-31T08:59:22.459Z,175
2016-01-31T09:00:22.461Z,165
2016-01-31T09:01:22.465Z,160
2016-01-31T09:02:22.484Z,160
2016-01-31T09:03:22.300Z,155
2016-01-31T09:04:22.459Z,150
2016-01-31T09:05:22.446Z,150
2016-01-31T09:06:22.435Z,150
2016-01-31T09:07:22.422Z,150
2016-01-31T09:08:22.456Z,150
2016-01-31T09:09:22.443Z,150
2016-01-31T09:10:22.461Z,150
2016-01-31T09:11:22.450Z,150
2016-01-31T09:12:22.452Z,150
2016-01-31T09:13:22.424Z,155
2016-01-31T09:14:22.414Z,155
2016-01-31T09:15:22.416Z,160
2016-01-31T09:16:23.153Z,160
2016-01-31T09:17:22.408Z,160
2016-01-31T09:18:22.427Z,155
2016-01-31T09:19:22.445Z,150
2016-01-31T09:20:22.438Z,155
2016-01-31T09:21:22.394Z,150
2016-01-31T09:22:22.241Z,145
2016-01-31T09:23:22.383Z,140
2016-01-31T09:24:22.386Z,135
2016-01-31T09:25:22.373Z,140
2016-01-31T09:26:22.439Z,140
2016-01-31T09:27:22.395Z,140
2016-01-31T09:28:22.382Z,140
2016-01-31T09:29:22.385Z,140
2016-01-31T09:30:22.403Z,135
2016-01-31T09:31:22.376Z,135
2016-01-31T09:32:22.362Z,135
2016-01-31T09:33:22.428Z,130
2016-01-31T09:34:22.367Z,130
2016-01-31T09:35:22.371Z,135
2016-01-31T09:36:22.562Z,140
2016-01-31T09:37:22.344Z,155
2016-01-31T09:38:22.378Z,165
2016-01-31T09:39:22.366Z,190
2016-01-31T09:40:22.322Z,215
2016-01-31T09:41:22.324Z,220
2016-01-31T09:42:22.342Z,210
2016-01-31T09:43:22.361Z,185
2016-01-31T09:44:22.321Z,170
2016-01-31T09:45:22.324Z,165
2016-01-31T09:46:22.342Z,150
2016-01-31T09:47:22.329Z,150
2016-01-31T09:48:22.328Z,140
2016-01-31T09:49:22.330Z,130
2016-01-31T09:50:22.303Z,120
2016-01-31T09:51:22.321Z,115
2016-01-31T09:52:22.777Z,120
2016-01-31T09:53:22.311Z,125
2016-01-31T09:54:22.297Z,135
2016-01-31T09:55:22.318Z,140
2016-01-31T09:56:22.320Z,140
2016-01-31T09:57:22.338Z,140
2016-01-31T09:58:22.280Z,140
2016-01-31T09:59:22.267Z,155
2016-01-31T10:00:22.535Z,165
2016-01-31T10:01:22.256Z,170
2016-01-31T10:02:22.275Z,175
2016-01-31T10:03:22.152Z,165
2016-01-31T10:04:22.296Z,155
2016-01-31T10:05:22.268Z,140
2016-01-31T10:06:22.272Z,135
2016-01-31T10:07:22.259Z,135
2016-01-31T10:08:22.261Z,145
2016-01-31T10:09:22.311Z,155
2016-01-31T10:10:22.254Z,160
2016-01-31T10:11:22.242Z,160
2016-01-31T10:12:22.229Z,150
2016-01-31T10:13:22.263Z,150
2016-01-31T10:14:22.235Z,145
2016-01-31T10:15:22.379Z,145
2016-01-31T10:16:22.396Z,150
2016-01-31T10:17:22.121Z,150
2016-01-31T10:18:22.232Z,150
2016-01-31T10:19:22.079Z,145
2016-01-31T10:20:22.238Z,145
2016-01-31T10:21:22.229Z,145
2016-01-31T10:22:22.340Z,140
2016-01-31T10:23:22.234Z,135
2016-01-31T10:24:22.268Z,135
2016-01-31T10:25:23.332Z,135
2016-01-31T10:26:22.211Z,135
2016-01-31T10:27:22.121Z,130
2016-01-31T10:28:22.217Z,130
2016-01-31T10:29:22.219Z,125
2016-01-31T10:30:22.238Z,125
2016-01-31T10:31:22.335Z,130
2016-01-31T10:32:22.259Z,135
2016-01-31T10:33:25.527Z,135
2016-01-31T10:34:22.233Z,135
2016-01-31T10:35:22.190Z,140
2016-01-31T10:36:22.192Z,145
2016-01-31T10:37:22.180Z,145
2016-01-31T10:38:22.166Z,145
2016-01-31T10:39:22.294Z,145
2016-01-31T10:40:22.172Z,145
2016-01-31T10:41:22.191Z,150
2016-01-31T10:42:22.194Z,150
2016-01-31T10:43:22.180Z,155
2016-01-31T10:44:22.183Z,160
2016-01-31T10:45:22.155Z,165
2016-01-31T10:46:22.364Z,170
2016-01-31T10:47:22.145Z,170
2016-01-31T10:48:22.133Z,180
2016-01-31T10:49:22.166Z,200
2016-01-31T10:50:22.171Z,215
2016-01-31T10:51:22.190Z,215
2016-01-31T10:52:22.131Z,190
2016-01-31T10:53:22.133Z,195
2016-01-31T10:54:21.998Z,200
2016-01-31T10:55:22.126Z,205
2016-01-31T10:56:22.191Z,215
2016-01-31T10:57:22.131Z,215
2016-01-31T10:58:22.118Z,215
2016-01-31T10:59:22.154Z,230
2016-01-31T11:00:22.126Z,290
2016-01-31T11:01:22.116Z,295
2016-01-31T11:02:22.118Z,245
2016-01-31T11:03:22.105Z,200
2016-01-31T11:04:22.093Z,185
2016-01-31T11:05:22.112Z,185
2016-01-31T11:06:22.084Z,185
2016-01-31T11:07:22.103Z,195
2016-01-31T11:08:22.105Z,190
2016-01-31T11:09:22.092Z,180
2016-01-31T11:10:22.130Z,170
2016-01-31T11:11:22.148Z,170
2016-01-31T11:12:22.088Z,170
2016-01-31T11:13:22.090Z,175
2016-01-31T11:14:22.082Z,180
2016-01-31T11:15:22.086Z,180
2016-01-31T11:16:22.089Z,180
2016-01-31T11:17:22.075Z,185
2016-01-31T11:18:22.078Z,180
2016-01-31T11:19:22.100Z,190
2016-01-31T11:20:22.102Z,195
2016-01-31T11:21:22.090Z,190
2016-01-31T11:22:22.077Z,190
2016-01-31T11:23:22.079Z,180
2016-01-31T11:24:22.067Z,175
2016-01-31T11:25:22.054Z,180
2016-01-31T11:26:21.931Z,180
2016-01-31T11:27:22.075Z,180
2016-01-31T11:28:22.062Z,180
2016-01-31T11:29:23.376Z,190
2016-01-31T11:30:22.052Z,195
2016-01-31T11:31:22.040Z,190
2016-01-31T11:32:22.042Z,190
2016-01-31T11:33:22.451Z,195
2016-01-31T11:34:22.049Z,190
2016-01-31T11:35:22.067Z,190
2016-01-31T11:36:22.069Z,190
2016-01-31T11:37:22.088Z,180
2016-01-31T11:38:25.700Z,170
2016-01-31T11:39:22.062Z,170
2016-01-31T11:40:22.080Z,170
2016-01-31T11:41:22.036Z,165
2016-01-31T11:42:22.086Z,170
2016-01-31T11:43:22.183Z,175
2016-01-31T11:44:22.404Z,185
2016-01-31T11:45:23.111Z,190
2016-01-31T11:46:24.036Z,200
2016-01-31T11:47:24.414Z,205
2016-01-31T11:48:22.103Z,215
2016-01-31T11:49:22.046Z,210
2016-01-31T11:50:22.292Z,215
2016-01-31T11:51:24.045Z,215
2016-01-31T11:52:22.161Z,225
2016-01-31T11:53:22.036Z,205
2016-01-31T11:54:22.681Z,200
2016-01-31T11:55:22.059Z,205
2016-01-31T11:56:22.531Z,205
2016-01-31T11:57:22.080Z,205
2016-01-31T11:58:22.540Z,210
2016-01-31T11:59:22.262Z,210
2016-01-31T12:00:23.218Z,210
2016-01-31T12:01:22.253Z,220
2016-01-31T12:02:22.192Z,240
2016-01-31T12:03:23.149Z,225
2016-01-31T12:04:22.480Z,210
2016-01-31T12:05:22.030Z,210
2016-01-31T12:06:22.267Z,215
2016-01-31T12:07:23.224Z,215
2016-01-31T12:08:22.070Z,210
2016-01-31T12:09:22.015Z,210
2016-01-31T12:10:21.986Z,210
2016-01-31T12:11:21.989Z,210
2016-01-31T12:12:22.696Z,215
2016-01-31T12:13:21.995Z,220
2016-01-31T12:14:22.015Z,230
2016-01-31T12:15:22.018Z,225
2016-01-31T12:16:22.052Z,220
2016-01-31T12:17:21.992Z,210
2016-01-31T12:18:21.983Z,200
2016-01-31T12:19:21.987Z,200
2016-01-31T12:20:22.020Z,195
2016-01-31T12:21:21.992Z,195
2016-01-31T12:22:21.995Z,190
2016-01-31T12:23:22.029Z,175
2016-01-31T12:24:22.017Z,170
2016-01-31T12:25:21.972Z,165
2016-01-31T12:26:21.975Z,165
2016-01-31T12:27:21.965Z,170
2016-01-31T12:28:21.968Z,170
2016-01-31T12:29:21.973Z,170
2016-01-31T12:30:22.319Z,175
2016-01-31T12:31:21.978Z,180
2016-01-31T12:32:21.965Z,190
2016-01-31T12:33:21.952Z,205
2016-01-31T12:34:21.958Z,220
2016-01-31T12:35:21.976Z,240
2016-01-31T12:36:21.963Z,255
2016-01-31T12:37:21.981Z,260
2016-01-31T12:38:22.001Z,255
2016-01-31T12:39:22.003Z,245
2016-01-31T12:40:21.943Z,250
2016-01-31T12:41:21.790Z,250
2016-01-31T12:42:21.953Z,250
2016-01-31T12:43:21.955Z,250
2016-01-31T12:44:21.958Z,260
2016-01-31T12:45:22.414Z,265
2016-01-31T12:46:21.964Z,265
2016-01-31T12:47:21.957Z,260
2016-01-31T12:48:21.975Z,250
2016-01-31T12:49:21.949Z,245
2016-01-31T12:50:21.952Z,240
2016-01-31T12:51:21.938Z,235
2016-01-31T12:52:21.957Z,230
2016-01-31T12:53:22.116Z,220
2016-01-31T12:54:21.776Z,215
2016-01-31T12:55:22.076Z,210
2016-01-31T12:56:22.064Z,210
2016-01-31T12:57:21.942Z,220
2016-01-31T12:58:21.960Z,230
2016-01-31T12:59:21.963Z,235
2016-01-31T13:00:21.918Z,235
2016-01-31T13:01:21.922Z,230
2016-01-31T13:02:21.756Z,225
2016-01-31T13:03:21.916Z,205
2016-01-31T13:04:21.919Z,185
2016-01-31T13:05:21.937Z,170
2016-01-31T13:06:21.925Z,165
2016-01-31T13:07:21.927Z,165
2016-01-31T13:08:21.961Z,170
2016-01-31T13:09:22.136Z,180
2016-01-31T13:10:21.920Z,195
2016-01-31T13:11:22.172Z,205
2016-01-31T13:12:21.972Z,210
2016-01-31T13:13:21.944Z,210
2016-01-31T13:14:21.899Z,210
2016-01-31T13:15:22.199Z,220
2016-01-31T13:16:21.920Z,220
2016-01-31T13:17:21.923Z,220
2016-01-31T13:18:21.959Z,220
2016-01-31T13:19:21.966Z,225
2016-01-31T13:20:21.940Z,220
2016-01-31T13:21:21.912Z,220
2016-01-31T13:22:21.915Z,215
2016-01-31T13:23:21.980Z,210
2016-01-31T13:24:22.201Z,210
2016-01-31T13:25:21.907Z,215
2016-01-31T13:26:21.926Z,225
2016-01-31T13:27:21.945Z,225
2016-01-31T13:28:22.105Z,230
2016-01-31T13:29:21.889Z,235
2016-01-31T13:30:21.907Z,255
2016-01-31T13:31:21.956Z,255
2016-01-31T13:32:21.897Z,255
2016-01-31T13:33:21.980Z,265
2016-01-31T13:34:21.905Z,260
2016-01-31T13:35:21.908Z,250
2016-01-31T13:36:21.910Z,230
2016-01-31T13:37:21.897Z,220
2016-01-31T13:38:21.763Z,210
2016-01-31T13:39:21.921Z,200
2016-01-31T13:40:21.924Z,190
2016-01-31T13:41:21.927Z,185
2016-01-31T13:42:21.933Z,185
2016-01-31T13:43:21.873Z,185
2016-01-31T13:44:21.892Z,190
2016-01-31T13:45:21.895Z,190
2016-01-31T13:46:21.881Z,190
2016-01-31T13:47:21.895Z,195
2016-01-31T13:48:21.991Z,190
2016-01-31T13:49:21.900Z,190
2016-01-31T13:50:21.964Z,190
2016-01-31T13:51:23.191Z,190
2016-01-31T13:52:22.495Z,195
2016-01-31T13:53:24.904Z,190
2016-01-31T13:54:26.813Z,190
2016-01-31T13:55:22.300Z,185
2016-01-31T13:56:22.240Z,180
2016-01-31T13:57:21.897Z,175
2016-01-31T13:58:23.659Z,170
2016-01-31T13:59:21.881Z,170
2016-01-31T14:00:21.915Z,165
2016-01-31T14:01:21.886Z,160
2016-01-31T14:02:21.877Z,155
2016-01-31T14:03:21.897Z,155
2016-01-31T14:04:21.884Z,155
2016-01-31T14:05:21.872Z,160
2016-01-31T14:06:22.608Z,160
2016-01-31T14:07:21.881Z,165
2016-01-31T14:08:21.867Z,170
2016-01-31T14:09:21.886Z,170
2016-01-31T14:10:21.857Z,165
2016-01-31T14:11:21.860Z,160
2016-01-31T14:12:21.879Z,155
2016-01-31T14:13:21.912Z,145
2016-01-31T14:14:21.931Z,145
2016-01-31T14:15:21.871Z,135
2016-01-31T14:16:21.873Z,135